Terminal Aerodrome Forecast
Issued by NWS Tulsa, OK

Home | Current Version | Previous Version | Text Only | Print | Product List | Glossary On
Versions: 1 2 3 4 5 6 7 8 9 10 11 12 13
000
FTUS44 KTSA 032324
TAFTUL
TAF
KTUL 032324Z 0400/0424 10006KT P6SM BKN025 OVC040
     FM040300 10006KT 4SM BR OVC015
     FM040600 11005KT 2SM -RA BR OVC007
     FM041500 31005KT 4SM BR OVC007
     FM041800 34007KT P6SM BKN015
     FM042100 34007KT P6SM SKC=

USA.gov is the U.S. government's official web portal to all federal, state and local government web resources and services.